Time;durP1;ratioP1;P1;durP2;ratioP2;P2;SDS_P1;SDS_P2;PMS_P1;PMS_P2;Temp;Humidity;BMP_temperature;BMP_pressure;BME280_temperature;BME280_humidity;BME280_pressure;Samples;Min_cycle;Max_cycle;Signal;HPM_P1;HPM_P2
2022/03/31 00:00:12;;;;;;;8.97;8.17;;;11.70;76.90;;;;;;4966835;28;20464;-84
2022/03/31 00:02:59;;;;;;;9.30;8.30;;;11.70;78.30;;;;;;4957745;28;20456;-84
2022/03/31 00:05:29;;;;;;;12.30;8.30;;;11.60;79.00;;;;;;4955909;28;20491;-84
2022/03/31 00:08:00;;;;;;;9.97;8.27;;;11.50;79.40;;;;;;4957409;28;20468;-83
2022/03/31 00:10:31;;;;;;;9.27;8.30;;;11.50;81.10;;;;;;4954084;28;20551;-84
2022/03/31 00:13:10;;;;;;;8.90;8.20;;;11.70;82.20;;;;;;4962798;28;20523;-85
2022/03/31 00:15:43;;;;;;;10.13;9.10;;;11.70;82.70;;;;;;4954997;28;20484;-82
2022/03/31 00:18:23;;;;;;;10.23;9.33;;;11.50;84.10;;;;;;4962551;28;20448;-84
2022/03/31 00:34:35;;;;;;;10.60;9.50;;;11.30;87.40;;;;;;4955518;28;20467;-85
2022/03/31 00:37:03;;;;;;;10.93;9.80;;;11.20;88.00;;;;;;4967432;28;20575;-83
2022/03/31 00:39:31;;;;;;;12.43;10.53;;;11.20;88.80;;;;;;4953032;28;20470;-84
2022/03/31 00:42:05;;;;;;;11.53;10.23;;;11.10;89.50;;;;;;4958735;28;21053;-85
2022/03/31 00:44:50;;;;;;;10.87;9.73;;;11.00;90.10;;;;;;4967395;28;20464;-84
2022/03/31 00:47:18;;;;;;;11.47;10.23;;;11.00;90.60;;;;;;4959561;28;20459;-81
2022/03/31 00:49:45;;;;;;;11.70;10.67;;;10.90;91.00;;;;;;4953367;28;21021;-84
2022/03/31 00:52:12;;;;;;;13.23;10.90;;;10.80;91.10;;;;;;4957131;28;20456;-84
2022/03/31 00:54:41;;;;;;;11.43;10.23;;;10.80;91.70;;;;;;4960747;28;20527;-84
2022/03/31 00:57:11;;;;;;;11.33;10.20;;;11.00;92.00;;;;;;4956606;28;20581;-80
2022/03/31 00:59:39;;;;;;;14.67;10.33;;;11.00;91.90;;;;;;4964022;28;20519;-85
2022/03/31 01:02:06;;;;;;;11.00;9.90;;;10.90;92.20;;;;;;4963234;28;20480;-84
2022/03/31 01:04:34;;;;;;;12.17;10.20;;;10.80;92.80;;;;;;4961653;28;20460;-83
2022/03/31 01:07:02;;;;;;;16.00;12.00;;;11.00;92.90;;;;;;4958208;28;20485;-85
2022/03/31 01:09:31;;;;;;;15.97;11.80;;;10.80;93.10;;;;;;4958611;28;20536;-84
2022/03/31 01:12:01;;;;;;;18.43;12.00;;;10.80;93.80;;;;;;4963226;28;20965;-82
2022/03/31 01:14:30;;;;;;;17.00;12.77;;;10.80;94.20;;;;;;4954868;28;20452;-83
2022/03/31 01:16:59;;;;;;;14.27;12.03;;;10.90;94.50;;;;;;4957702;28;20495;-84
2022/03/31 01:19:26;;;;;;;13.63;11.70;;;10.80;94.60;;;;;;4970027;28;20470;-83
2022/03/31 01:21:53;;;;;;;15.07;11.40;;;10.90;94.20;;;;;;4961054;28;20547;-83
2022/03/31 01:24:20;;;;;;;16.10;12.20;;;10.90;94.20;;;;;;4958619;28;20542;-83
2022/03/31 01:26:48;;;;;;;16.53;12.77;;;11.00;94.50;;;;;;4960076;28;20488;-83
2022/03/31 01:29:15;;;;;;;16.50;12.60;;;10.80;94.10;;;;;;4959310;28;20455;-83
2022/03/31 01:31:42;;;;;;;18.70;12.50;;;10.80;94.40;;;;;;4955531;28;20459;-82
2022/03/31 01:34:09;;;;;;;15.63;11.50;;;10.70;94.80;;;;;;4959874;28;20472;-84
2022/03/31 01:36:37;;;;;;;18.30;13.67;;;10.70;95.00;;;;;;4968303;28;21028;-83
2022/03/31 01:39:05;;;;;;;18.17;12.80;;;10.50;95.50;;;;;;4963247;28;20468;-83
2022/03/31 01:41:32;;;;;;;16.53;12.17;;;10.50;96.00;;;;;;4957852;28;20463;-83
2022/03/31 01:43:59;;;;;;;16.20;12.50;;;10.70;96.20;;;;;;4957852;28;20870;-85
2022/03/31 01:46:26;;;;;;;13.83;12.23;;;10.70;96.00;;;;;;4958101;28;20476;-83
2022/03/31 01:48:53;;;;;;;13.63;12.17;;;10.60;96.20;;;;;;4962560;28;20833;-83
2022/03/31 01:51:20;;;;;;;16.90;12.30;;;10.60;96.40;;;;;;4959621;28;20459;-84
2022/03/31 01:53:47;;;;;;;15.90;13.07;;;10.70;96.70;;;;;;4960013;28;20463;-84
2022/03/31 01:56:14;;;;;;;14.33;11.10;;;10.60;96.60;;;;;;4956981;28;21189;-83
2022/03/31 01:58:41;;;;;;;17.30;12.57;;;10.60;96.60;;;;;;4963176;28;20454;-84
2022/03/31 02:01:08;;;;;;;16.10;12.30;;;10.80;96.30;;;;;;4961107;28;20474;-84
2022/03/31 02:03:35;;;;;;;18.73;12.90;;;10.60;95.90;;;;;;4968950;28;21039;-85
2022/03/31 02:06:02;;;;;;;14.87;12.40;;;10.80;96.40;;;;;;4967894;28;20487;-84
2022/03/31 02:08:29;;;;;;;17.20;14.13;;;10.50;96.50;;;;;;4968118;28;20459;-84
2022/03/31 02:10:57;;;;;;;16.03;12.70;;;10.50;96.90;;;;;;4967688;28;20537;-83
2022/03/31 02:13:24;;;;;;;18.00;12.60;;;10.60;97.30;;;;;;4967805;28;20951;-84
2022/03/31 02:15:51;;;;;;;15.43;12.20;;;10.50;97.50;;;;;;4965665;28;20995;-84
2022/03/31 02:18:19;;;;;;;16.30;12.20;;;10.50;97.60;;;;;;4984779;28;20806;-84
2022/03/31 02:20:46;;;;;;;14.50;12.10;;;10.70;97.40;;;;;;4988699;28;20531;-84
2022/03/31 02:23:12;;;;;;;20.07;13.87;;;10.60;96.80;;;;;;4988795;28;20452;-84
2022/03/31 02:25:39;;;;;;;15.50;12.30;;;10.70;96.90;;;;;;4990225;28;20473;-84
2022/03/31 02:28:06;;;;;;;15.77;13.00;;;10.70;96.60;;;;;;4985953;28;20462;-83
2022/03/31 02:30:35;;;;;;;16.90;12.97;;;10.80;97.10;;;;;;4977001;28;20506;-85
2022/03/31 02:33:03;;;;;;;17.00;13.53;;;10.80;96.80;;;;;;4965884;28;20463;-82
2022/03/31 02:35:31;;;;;;;18.70;14.00;;;10.80;97.10;;;;;;4959413;28;20490;-83
2022/03/31 02:37:58;;;;;;;18.47;14.27;;;10.60;97.30;;;;;;4956053;28;20484;-83
2022/03/31 02:40:25;;;;;;;19.60;13.33;;;10.60;97.00;;;;;;4959107;28;20459;-81
2022/03/31 02:42:52;;;;;;;18.57;14.10;;;10.60;97.20;;;;;;4971805;28;20474;-84
2022/03/31 02:45:19;;;;;;;17.20;13.40;;;10.50;97.10;;;;;;4956029;28;20494;-82
2022/03/31 02:47:52;;;;;;;21.53;15.80;;;10.40;97.40;;;;;;4964530;28;20451;-83
2022/03/31 02:50:29;;;;;;;17.80;13.63;;;10.30;97.40;;;;;;4974590;28;20461;-83
2022/03/31 02:55:45;;;;;;;19.23;14.10;;;10.40;97.70;;;;;;4957963;28;20506;-83
2022/03/31 02:58:17;;;;;;;18.60;13.30;;;10.30;98.20;;;;;;4952078;28;20491;-84
2022/03/31 03:01:05;;;;;;;18.00;14.40;;;10.30;98.50;;;;;;4956960;28;20467;-83
2022/03/31 03:03:43;;;;;;;23.00;14.00;;;10.20;98.90;;;;;;4956591;28;20479;-85
2022/03/31 03:06:11;;;;;;;21.77;14.00;;;10.10;98.60;;;;;;4956104;28;20472;-83
2022/03/31 03:08:46;;;;;;;21.17;14.37;;;10.10;99.00;;;;;;4956318;28;20499;-83
2022/03/31 03:11:23;;;;;;;22.80;15.00;;;10.00;99.10;;;;;;4955357;28;20458;-85
2022/03/31 03:14:00;;;;;;;21.60;14.50;;;10.10;99.70;;;;;;4955085;28;20579;-84
2022/03/31 03:16:30;;;;;;;17.10;12.50;;;10.10;99.50;;;;;;4957706;28;22352;-84
2022/03/31 03:19:03;;;;;;;23.97;16.43;;;10.10;99.40;;;;;;4956938;28;20464;-84
2022/03/31 03:21:38;;;;;;;20.70;14.60;;;9.90;99.90;;;;;;4956900;28;20486;-83
2022/03/31 03:24:22;;;;;;;22.07;15.67;;;9.90;99.90;;;;;;4957240;28;20538;-84
2022/03/31 03:27:14;;;;;;;19.80;13.93;;;10.00;99.90;;;;;;4954127;28;20590;-85
2022/03/31 03:29:53;;;;;;;16.03;11.90;;;10.00;99.60;;;;;;4956325;28;20475;-83
2022/03/31 03:32:40;;;;;;;17.10;12.83;;;9.80;99.90;;;;;;4952885;28;20463;-85
2022/03/31 03:35:33;;;;;;;17.87;14.00;;;9.50;99.90;;;;;;4958325;28;20980;-85
2022/03/31 03:38:15;;;;;;;23.00;15.40;;;9.50;99.90;;;;;;4955417;28;20480;-84
2022/03/31 03:40:49;;;;;;;19.80;14.70;;;9.60;99.90;;;;;;4958214;28;20520;-84
2022/03/31 03:43:52;;;;;;;19.07;14.60;;;9.60;99.90;;;;;;4962514;28;20472;-83
2022/03/31 03:46:28;;;;;;;18.50;14.27;;;9.50;99.90;;;;;;4962947;28;21061;-83
2022/03/31 03:49:04;;;;;;;19.23;14.47;;;9.50;99.90;;;;;;4958215;28;20466;-83
2022/03/31 03:51:35;;;;;;;21.30;15.20;;;9.60;99.90;;;;;;4969365;28;20486;-83
2022/03/31 03:54:03;;;;;;;19.20;14.50;;;9.70;99.90;;;;;;4966674;28;20460;-82
2022/03/31 03:56:48;;;;;;;19.57;14.10;;;9.80;99.90;;;;;;4960643;28;20487;-83
2022/03/31 03:59:34;;;;;;;18.20;12.73;;;9.70;99.90;;;;;;4963515;28;20469;-84
2022/03/31 04:02:08;;;;;;;16.77;12.83;;;9.70;99.80;;;;;;4959326;28;20452;-82
2022/03/31 04:04:58;;;;;;;16.37;12.30;;;9.80;99.80;;;;;;4961551;28;20782;-85
2022/03/31 04:07:34;;;;;;;18.60;13.30;;;9.90;99.50;;;;;;4957661;28;20740;-83
2022/03/31 04:10:11;;;;;;;17.93;13.57;;;9.70;99.20;;;;;;4951771;28;20466;-86
2022/03/31 04:13:01;;;;;;;21.33;12.93;;;9.70;99.20;;;;;;4957313;28;21042;-85
2022/03/31 04:15:47;;;;;;;18.13;13.20;;;9.70;99.50;;;;;;4954963;28;20499;-84
2022/03/31 04:18:53;;;;;;;17.47;12.37;;;9.70;99.60;;;;;;4955845;28;20494;-84
2022/03/31 04:21:30;;;;;;;18.17;14.17;;;9.70;99.60;;;;;;4958179;28;20543;-84
2022/03/31 04:24:12;;;;;;;16.30;12.20;;;9.70;99.20;;;;;;4958071;28;20511;-82
2022/03/31 04:26:44;;;;;;;16.97;13.00;;;9.70;99.40;;;;;;4956495;28;20486;-86
2022/03/31 04:29:17;;;;;;;18.50;13.57;;;9.90;99.30;;;;;;4956490;28;20570;-83
2022/03/31 04:31:45;;;;;;;20.23;13.60;;;9.80;98.90;;;;;;4956823;28;20583;-84
2022/03/31 04:34:24;;;;;;;20.80;14.10;;;9.70;98.20;;;;;;4960310;28;20534;-84
2022/03/31 04:37:09;;;;;;;22.17;13.80;;;9.80;98.70;;;;;;4964090;23;20570;-83
2022/03/31 04:40:03;;;;;;;18.53;13.17;;;9.60;98.90;;;;;;4948340;28;20460;-82
2022/03/31 04:42:46;;;;;;;20.10;13.60;;;9.60;99.30;;;;;;4952893;28;21849;-85
2022/03/31 04:45:17;;;;;;;16.00;13.20;;;9.70;99.40;;;;;;4953381;28;20521;-84
2022/03/31 04:48:13;;;;;;;19.17;13.47;;;9.60;99.30;;;;;;4955693;28;20572;-85
2022/03/31 04:50:53;;;;;;;21.43;13.90;;;9.70;98.80;;;;;;4953329;28;20453;-85
2022/03/31 04:53:30;;;;;;;20.90;13.93;;;9.70;99.30;;;;;;4953504;28;20550;-83
2022/03/31 04:56:00;;;;;;;22.87;12.50;;;9.70;99.90;;;;;;4952521;28;20484;-85
2022/03/31 04:58:50;;;;;;;18.97;13.77;;;9.50;99.90;;;;;;4949992;28;20911;-85
2022/03/31 05:01:29;;;;;;;20.27;14.07;;;9.50;99.90;;;;;;4958478;28;20463;-85
2022/03/31 05:04:05;;;;;;;18.50;12.47;;;9.70;99.90;;;;;;4957625;28;20546;-83
2022/03/31 05:06:38;;;;;;;18.97;14.30;;;9.70;99.90;;;;;;4955136;28;20504;-85
2022/03/31 05:09:11;;;;;;;20.23;14.23;;;9.80;99.90;;;;;;4952801;28;20464;-85
2022/03/31 05:11:46;;;;;;;17.17;13.40;;;9.90;99.70;;;;;;4951012;28;20488;-84
2022/03/31 05:14:22;;;;;;;17.07;12.70;;;9.80;99.50;;;;;;4966691;28;20463;-85
2022/03/31 05:16:58;;;;;;;16.00;12.77;;;9.80;99.90;;;;;;4968872;28;21039;-82
2022/03/31 05:19:42;;;;;;;18.10;13.93;;;9.60;99.50;;;;;;4955060;28;20460;-85
2022/03/31 05:22:15;;;;;;;17.57;14.17;;;9.70;99.50;;;;;;4968307;28;20463;-85
2022/03/31 05:24:45;;;;;;;18.80;14.50;;;9.60;99.90;;;;;;4953918;28;20866;-83
2022/03/31 05:27:24;;;;;;;18.10;14.10;;;9.50;99.90;;;;;;4953576;28;20838;-84
2022/03/31 05:30:05;;;;;;;18.73;14.67;;;9.70;99.90;;;;;;4968025;28;20468;-83
2022/03/31 05:32:48;;;;;;;21.37;15.40;;;9.60;99.90;;;;;;4961685;28;20470;-81
2022/03/31 05:35:48;;;;;;;18.27;13.80;;;9.60;99.90;;;;;;4950400;28;20519;-81
2022/03/31 05:38:29;;;;;;;21.47;14.50;;;9.60;99.90;;;;;;4952186;28;20511;-82
2022/03/31 05:41:01;;;;;;;17.80;13.17;;;9.50;99.90;;;;;;4955882;28;20511;-82
2022/03/31 05:43:30;;;;;;;19.37;12.57;;;9.50;99.90;;;;;;4954695;28;20586;-84
2022/03/31 05:46:17;;;;;;;20.00;13.77;;;9.50;99.90;;;;;;4976606;28;20519;-85
2022/03/31 05:48:56;;;;;;;15.83;12.73;;;9.40;99.90;;;;;;4959220;28;20459;-83
2022/03/31 05:51:28;;;;;;;16.53;12.67;;;9.40;99.90;;;;;;4958160;28;20481;-84
2022/03/31 05:53:58;;;;;;;20.57;13.17;;;9.50;99.90;;;;;;4960278;28;20542;-84
2022/03/31 05:56:36;;;;;;;18.53;12.80;;;9.60;99.90;;;;;;4959309;28;21669;-84
2022/03/31 05:59:08;;;;;;;18.63;12.80;;;9.50;99.70;;;;;;4960075;28;21493;-86
2022/03/31 06:01:45;;;;;;;16.63;12.30;;;9.50;99.60;;;;;;4959393;28;20877;-86
2022/03/31 06:04:12;;;;;;;20.00;13.70;;;9.50;99.40;;;;;;4975990;28;20468;-85
2022/03/31 06:06:59;;;;;;;18.07;12.80;;;9.30;98.90;;;;;;4973335;28;20500;-86
2022/03/31 06:09:35;;;;;;;19.80;13.07;;;9.30;99.50;;;;;;4965891;28;20533;-86
2022/03/31 06:12:07;;;;;;;19.67;12.77;;;9.30;99.60;;;;;;4977130;28;20554;-85
2022/03/31 06:14:38;;;;;;;17.23;12.20;;;9.30;99.40;;;;;;4964177;28;20460;-85
2022/03/31 06:17:23;;;;;;;19.83;14.33;;;9.40;99.60;;;;;;4965257;28;20515;-85
2022/03/31 06:20:08;;;;;;;17.03;12.77;;;9.30;98.70;;;;;;4986073;28;20480;-83
2022/03/31 06:22:42;;;;;;;15.27;12.07;;;9.10;99.30;;;;;;4991880;28;20451;-84
2022/03/31 06:25:22;;;;;;;17.70;12.70;;;9.20;99.10;;;;;;4976536;28;20475;-84
2022/03/31 06:27:53;;;;;;;16.53;11.60;;;9.10;99.10;;;;;;4980301;28;20503;-85
2022/03/31 06:30:23;;;;;;;16.37;10.63;;;9.30;99.20;;;;;;4956727;28;20545;-85
2022/03/31 06:32:59;;;;;;;17.97;11.90;;;9.40;98.30;;;;;;4960253;28;20459;-85
2022/03/31 06:35:34;;;;;;;18.47;12.70;;;9.20;98.50;;;;;;4984654;28;20491;-85
2022/03/31 06:38:04;;;;;;;19.33;12.50;;;9.20;99.30;;;;;;4959439;28;21164;-83
2022/03/31 06:40:36;;;;;;;20.77;12.00;;;9.20;99.60;;;;;;4959764;28;20468;-84
2022/03/31 06:43:05;;;;;;;16.17;13.00;;;9.20;99.40;;;;;;4977041;28;20467;-83
2022/03/31 06:45:35;;;;;;;16.37;12.70;;;9.10;99.70;;;;;;4975720;28;20543;-84
2022/03/31 06:48:06;;;;;;;17.10;11.90;;;9.00;99.90;;;;;;4963621;28;20470;-84
2022/03/31 06:50:37;;;;;;;20.70;13.73;;;9.00;99.90;;;;;;4963006;28;20456;-84
2022/03/31 06:53:07;;;;;;;18.63;12.67;;;9.00;99.90;;;;;;4978033;28;20482;-84
2022/03/31 06:55:40;;;;;;;19.80;11.70;;;8.90;99.90;;;;;;4962297;28;20487;-85
2022/03/31 06:58:21;;;;;;;19.93;13.90;;;8.80;99.90;;;;;;4960285;28;20490;-84
2022/03/31 07:00:52;;;;;;;21.23;13.20;;;8.90;99.90;;;;;;4961127;28;20467;-84
2022/03/31 07:03:35;;;;;;;15.40;12.57;;;9.00;99.90;;;;;;4955674;28;20460;-83
2022/03/31 07:06:07;;;;;;;16.33;12.90;;;8.90;99.90;;;;;;4970412;28;20526;-84
2022/03/31 07:08:34;;;;;;;18.50;12.77;;;9.20;99.90;;;;;;4959502;28;20515;-83
2022/03/31 07:11:05;;;;;;;17.90;12.23;;;9.20;99.90;;;;;;4954857;28;20472;-84
2022/03/31 07:16:19;;;;;;;20.20;12.97;;;8.90;99.90;;;;;;5015933;23;20680;-82
2022/03/31 07:18:47;;;;;;;19.70;14.13;;;9.10;99.90;;;;;;4992502;28;20485;-85
2022/03/31 07:21:14;;;;;;;21.07;13.20;;;9.20;99.90;;;;;;4989560;28;20473;-86
2022/03/31 07:23:41;;;;;;;17.73;12.23;;;9.40;99.90;;;;;;4985729;28;20475;-85
2022/03/31 07:26:10;;;;;;;18.50;12.97;;;9.20;99.90;;;;;;4988386;28;20497;-85
2022/03/31 07:28:37;;;;;;;16.23;12.43;;;9.20;99.90;;;;;;4987510;28;20473;-84
2022/03/31 07:31:04;;;;;;;17.67;11.47;;;9.10;99.90;;;;;;4983306;28;20466;-84
2022/03/31 07:33:31;;;;;;;17.63;13.63;;;9.30;99.30;;;;;;4985372;28;20467;-84
2022/03/31 07:36:00;;;;;;;17.80;12.20;;;9.10;98.90;;;;;;4983933;28;20494;-83
2022/03/31 07:38:26;;;;;;;17.67;12.10;;;9.00;99.70;;;;;;4986205;28;20475;-83
2022/03/31 07:40:53;;;;;;;17.73;11.17;;;9.10;99.90;;;;;;4989228;28;20463;-84
2022/03/31 07:43:20;;;;;;;16.13;11.67;;;9.10;99.90;;;;;;4988191;28;20494;-83
2022/03/31 07:45:49;;;;;;;16.60;12.23;;;9.00;99.90;;;;;;5005043;28;20481;-83
2022/03/31 07:48:18;;;;;;;15.80;11.67;;;9.00;99.90;;;;;;4988115;28;20919;-84
2022/03/31 07:50:45;;;;;;;15.53;11.20;;;9.10;99.90;;;;;;4985223;28;21975;-84
2022/03/31 07:53:13;;;;;;;17.37;11.40;;;9.10;99.90;;;;;;4984372;28;20474;-83
2022/03/31 07:55:41;;;;;;;13.43;11.33;;;9.10;99.90;;;;;;4990031;28;20489;-82
2022/03/31 07:58:08;;;;;;;15.00;10.90;;;9.20;99.90;;;;;;4987720;28;20486;-84
2022/03/31 08:00:36;;;;;;;14.43;11.00;;;9.30;99.90;;;;;;4987853;28;20520;-84
2022/03/31 08:03:03;;;;;;;17.13;11.50;;;9.40;98.70;;;;;;4982981;28;21193;-83
2022/03/31 08:05:30;;;;;;;12.37;10.17;;;9.20;98.20;;;;;;4986533;28;20475;-82
2022/03/31 08:07:58;;;;;;;17.07;11.83;;;9.10;98.60;;;;;;4984274;28;20455;-83
2022/03/31 08:10:26;;;;;;;17.20;11.93;;;8.90;98.90;;;;;;4985288;28;21031;-84
2022/03/31 08:12:54;;;;;;;17.37;11.00;;;9.10;99.90;;;;;;4984800;28;20601;-83
2022/03/31 08:15:24;;;;;;;14.37;10.00;;;9.10;99.10;;;;;;4998217;28;20495;-85
2022/03/31 08:17:54;;;;;;;13.87;11.10;;;9.00;99.00;;;;;;5005095;28;20566;-84
2022/03/31 08:20:22;;;;;;;15.07;9.80;;;8.70;98.80;;;;;;5006908;28;20442;-85
2022/03/31 08:22:49;;;;;;;17.57;12.13;;;8.80;98.70;;;;;;5026139;28;20504;-86
2022/03/31 08:25:17;;;;;;;16.00;11.30;;;8.70;98.90;;;;;;5000404;28;20485;-87
2022/03/31 08:27:45;;;;;;;16.33;11.00;;;8.80;99.50;;;;;;5002223;28;20478;-85
2022/03/31 08:30:19;;;;;;;15.77;10.40;;;9.00;99.20;;;;;;5002339;28;21805;-85
2022/03/31 08:33:09;;;;;;;14.53;11.30;;;9.00;98.50;;;;;;5001512;28;20474;-87
2022/03/31 08:35:53;;;;;;;15.60;10.67;;;9.00;98.50;;;;;;4999489;28;20667;-87
2022/03/31 08:38:43;;;;;;;16.70;11.20;;;8.90;98.70;;;;;;4997481;28;20573;-87
2022/03/31 08:41:19;;;;;;;18.43;12.07;;;9.00;99.20;;;;;;4999047;28;20808;-86
2022/03/31 08:43:51;;;;;;;13.23;10.27;;;9.00;98.40;;;;;;4994547;28;20466;-87
2022/03/31 08:46:49;;;;;;;17.90;11.77;;;9.00;98.70;;;;;;4993922;28;21035;-88
2022/03/31 08:49:32;;;;;;;16.07;11.70;;;9.20;98.90;;;;;;5008352;28;20589;-85
2022/03/31 08:52:17;;;;;;;14.80;10.80;;;9.20;98.30;;;;;;4996478;28;20494;-84
2022/03/31 08:55:03;;;;;;;12.73;9.73;;;9.30;98.50;;;;;;4992294;28;20462;-84
2022/03/31 08:58:02;;;;;;;13.57;10.80;;;9.10;98.60;;;;;;4980346;28;20467;-84
2022/03/31 09:00:38;;;;;;;16.77;11.00;;;9.30;98.90;;;;;;4993039;28;20458;-86
2022/03/31 09:03:34;;;;;;;15.00;11.43;;;9.20;98.80;;;;;;4957436;28;20457;-85
2022/03/31 09:06:32;;;;;;;17.40;11.57;;;9.40;99.50;;;;;;4986176;28;20479;-83
2022/03/31 09:09:10;;;;;;;15.20;10.20;;;9.40;98.80;;;;;;4985409;28;20589;-83
2022/03/31 09:11:52;;;;;;;14.47;11.07;;;9.50;98.20;;;;;;4982188;28;20498;-83
2022/03/31 09:15:15;;;;;;;15.00;11.20;;;9.40;97.80;;;;;;4982903;28;20580;-83
2022/03/31 09:17:57;;;;;;;13.70;10.70;;;9.30;98.00;;;;;;4979625;28;20604;-83
2022/03/31 09:20:43;;;;;;;16.37;11.83;;;9.30;99.30;;;;;;4983607;28;20459;-82
2022/03/31 09:23:39;;;;;;;24.00;15.43;;;9.40;98.90;;;;;;4984424;28;20492;-84
2022/03/31 09:26:14;;;;;;;21.43;13.47;;;9.50;98.40;;;;;;4968848;28;20483;-83
2022/03/31 09:28:50;;;;;;;14.07;10.63;;;9.50;98.40;;;;;;4981483;28;20461;-83
2022/03/31 09:31:42;;;;;;;15.80;10.90;;;9.60;98.60;;;;;;4979725;28;20553;-85
2022/03/31 09:34:44;;;;;;;18.50;10.57;;;9.70;97.60;;;;;;4993323;28;20513;-84
2022/03/31 09:37:32;;;;;;;15.83;12.03;;;9.60;98.20;;;;;;4985911;28;20520;-85
2022/03/31 09:40:25;;;;;;;17.37;11.60;;;9.60;98.90;;;;;;4984447;28;20458;-84
2022/03/31 09:43:04;;;;;;;16.80;12.60;;;9.60;98.30;;;;;;4984003;28;21005;-84
2022/03/31 09:45:52;;;;;;;15.37;12.10;;;9.40;98.30;;;;;;4991326;28;20566;-83
2022/03/31 09:48:28;;;;;;;14.50;11.10;;;9.50;98.70;;;;;;4998526;28;22655;-83
2022/03/31 09:51:02;;;;;;;17.93;11.43;;;9.50;98.80;;;;;;4986427;28;20518;-84
2022/03/31 09:53:36;;;;;;;18.53;12.80;;;9.30;99.20;;;;;;4990090;28;20944;-82
2022/03/31 09:56:25;;;;;;;21.33;12.50;;;9.40;99.50;;;;;;4990366;28;20500;-82
2022/03/31 09:59:02;;;;;;;17.70;12.10;;;9.50;99.00;;;;;;4985491;28;20490;-84
2022/03/31 10:01:40;;;;;;;15.70;11.13;;;9.50;99.30;;;;;;4989165;28;20465;-84
2022/03/31 10:04:13;;;;;;;17.07;12.30;;;9.40;99.50;;;;;;4986669;28;20584;-82
2022/03/31 10:06:52;;;;;;;17.40;12.70;;;9.60;99.20;;;;;;5000779;28;20479;-84
2022/03/31 10:09:46;;;;;;;18.97;12.37;;;9.80;99.00;;;;;;4996609;28;20463;-81
2022/03/31 10:12:56;;;;;;;15.30;12.13;;;9.80;99.10;;;;;;4991584;28;21392;-85
2022/03/31 10:15:49;;;;;;;14.80;11.10;;;9.80;99.20;;;;;;4987283;28;20548;-82
2022/03/31 10:18:24;;;;;;;15.30;10.87;;;10.00;98.60;;;;;;4987719;28;21727;-85
2022/03/31 10:20:57;;;;;;;14.83;11.40;;;9.70;98.40;;;;;;4990046;28;20450;-83
2022/03/31 10:26:42;;;;;;;18.53;11.50;;;10.10;98.60;;;;;;4987674;28;20541;-83
2022/03/31 10:29:16;;;;;;;15.30;12.23;;;9.90;98.90;;;;;;4989863;28;20488;-84
2022/03/31 10:31:57;;;;;;;18.27;12.33;;;9.80;99.50;;;;;;4991804;28;20525;-85
2022/03/31 10:37:48;;;;;;;15.40;11.30;;;10.20;98.00;;;;;;4989845;28;20527;-82
2022/03/31 10:40:59;;;;;;;16.07;11.53;;;10.00;97.70;;;;;;4985556;28;20497;-85
2022/03/31 10:43:45;;;;;;;13.80;10.53;;;9.90;98.10;;;;;;4985061;28;20435;-82
2022/03/31 10:58:30;;;;;;;;;;;;;;;;;;;;;
2022/03/31 11:01:28;;;;;;;19.30;11.70;;;9.60;99.20;;;;;;4916876;28;20449;-83
2022/03/31 11:04:18;;;;;;;14.20;11.07;;;9.50;99.20;;;;;;4937042;28;20528;-84
2022/03/31 11:06:52;;;;;;;17.17;11.97;;;9.40;99.90;;;;;;4926011;28;20516;-83
2022/03/31 11:09:28;;;;;;;17.77;12.30;;;9.70;99.90;;;;;;4943446;28;20665;-83
2022/03/31 11:12:19;;;;;;;17.60;12.80;;;9.80;99.10;;;;;;4930133;28;20526;-84
2022/03/31 11:15:16;;;;;;;16.83;14.70;;;9.80;99.30;;;;;;4931361;28;20507;-84
2022/03/31 11:18:10;;;;;;;16.43;12.63;;;9.70;98.40;;;;;;4940524;28;20466;-82
2022/03/31 11:20:57;;;;;;;17.27;10.60;;;9.30;99.30;;;;;;4953750;28;20561;-83
2022/03/31 11:23:32;;;;;;;17.87;11.30;;;9.20;99.90;;;;;;4947137;28;20550;-82
2022/03/31 11:26:49;;;;;;;17.20;11.10;;;9.40;99.20;;;;;;4958861;28;21130;-82
2022/03/31 11:29:30;;;;;;;14.57;10.37;;;9.70;98.50;;;;;;4986803;28;20982;-85
2022/03/31 11:32:05;;;;;;;14.93;10.90;;;9.60;98.50;;;;;;4985243;28;20550;-85
2022/03/31 11:34:36;;;;;;;14.10;10.70;;;9.40;98.70;;;;;;4998932;28;20960;-85
2022/03/31 11:37:02;;;;;;;15.07;10.67;;;9.20;99.10;;;;;;5000706;28;20475;-84
2022/03/31 11:39:30;;;;;;;15.47;11.40;;;9.00;99.70;;;;;;5001561;28;20470;-84
2022/03/31 11:41:59;;;;;;;16.23;9.70;;;8.90;99.90;;;;;;4998649;28;21007;-84
2022/03/31 11:44:29;;;;;;;13.80;10.00;;;9.20;99.90;;;;;;4999999;28;20831;-84
2022/03/31 11:46:56;;;;;;;14.97;10.40;;;9.40;99.60;;;;;;5005370;28;21836;-85
2022/03/31 11:49:28;;;;;;;13.20;10.30;;;9.60;99.10;;;;;;5004258;28;20458;-85
2022/03/31 11:52:01;;;;;;;14.63;10.30;;;9.40;99.40;;;;;;5008050;28;20465;-85
2022/03/31 11:54:41;;;;;;;12.47;9.10;;;9.60;99.50;;;;;;5009142;28;20880;-85
2022/03/31 11:57:15;;;;;;;13.73;9.57;;;9.90;97.20;;;;;;5014567;28;20478;-86
2022/03/31 12:00:08;;;;;;;13.70;10.17;;;9.60;96.80;;;;;;5004262;28;20470;-85
2022/03/31 12:03:09;;;;;;;12.13;9.10;;;9.80;97.40;;;;;;5017139;28;20454;-85
2022/03/31 12:06:04;;;;;;;16.90;11.10;;;9.80;97.40;;;;;;5011772;28;20597;-87
2022/03/31 12:08:43;;;;;;;13.90;10.57;;;9.90;97.60;;;;;;5017112;28;20455;-85
2022/03/31 12:11:13;;;;;;;16.97;11.83;;;10.00;97.80;;;;;;5016867;28;20451;-86
2022/03/31 12:14:07;;;;;;;14.73;11.03;;;9.90;98.20;;;;;;5013675;28;20453;-85
2022/03/31 12:16:52;;;;;;;12.50;9.50;;;9.90;97.90;;;;;;5010785;28;20470;-85
2022/03/31 12:19:36;;;;;;;12.90;9.23;;;9.90;98.50;;;;;;5002287;28;20500;-85
2022/03/31 12:22:14;;;;;;;12.43;9.43;;;10.00;97.30;;;;;;5004721;28;20501;-85
2022/03/31 12:25:00;;;;;;;14.27;8.70;;;9.80;96.80;;;;;;5003132;28;21390;-85
2022/03/31 12:27:54;;;;;;;11.80;9.50;;;9.70;96.70;;;;;;4998322;28;20520;-85
2022/03/31 12:30:55;;;;;;;13.47;10.37;;;9.70;97.50;;;;;;4997496;28;20460;-84
2022/03/31 12:33:34;;;;;;;16.60;11.63;;;9.80;98.50;;;;;;5001700;28;20487;-82
2022/03/31 12:36:06;;;;;;;18.57;12.80;;;9.80;98.90;;;;;;4996474;28;20596;-86
2022/03/31 12:38:50;;;;;;;13.20;10.43;;;9.50;98.90;;;;;;5001224;28;20465;-85
2022/03/31 12:41:34;;;;;;;14.50;10.90;;;9.60;99.60;;;;;;5000813;28;20482;-85
2022/03/31 12:44:23;;;;;;;17.10;12.50;;;9.60;99.60;;;;;;4996319;28;21554;-85
2022/03/31 12:47:01;;;;;;;15.27;11.87;;;9.50;99.90;;;;;;5009718;28;20522;-86
2022/03/31 12:49:43;;;;;;;16.87;11.00;;;9.60;99.90;;;;;;4996224;28;20498;-85
2022/03/31 12:52:26;;;;;;;12.30;9.67;;;9.70;99.60;;;;;;4998842;28;20511;-84
2022/03/31 12:55:07;;;;;;;11.63;8.67;;;9.70;97.70;;;;;;4995551;28;20486;-87
2022/03/31 12:58:04;;;;;;;11.20;10.03;;;9.70;97.50;;;;;;4996996;28;21260;-85
2022/03/31 13:01:12;;;;;;;13.80;9.60;;;9.50;97.60;;;;;;4992559;28;20587;-86
2022/03/31 13:03:56;;;;;;;14.60;10.37;;;9.70;97.50;;;;;;4993955;28;20522;-86
2022/03/31 13:06:51;;;;;;;13.80;10.03;;;9.30;97.90;;;;;;4992610;28;20473;-83
2022/03/31 13:09:28;;;;;;;11.57;9.40;;;9.30;98.90;;;;;;4994279;28;20573;-86
2022/03/31 13:12:19;;;;;;;14.20;10.33;;;9.40;99.40;;;;;;4989848;28;20485;-85
2022/03/31 13:14:49;;;;;;;13.20;9.33;;;9.30;99.20;;;;;;4997498;28;20463;-86
2022/03/31 13:17:26;;;;;;;12.77;9.87;;;9.30;99.30;;;;;;4995890;28;20574;-85
2022/03/31 13:20:15;;;;;;;13.57;10.40;;;9.40;99.10;;;;;;4990260;28;20859;-84
2022/03/31 13:23:13;;;;;;;11.47;8.60;;;9.40;99.30;;;;;;4992733;28;20486;-86
2022/03/31 13:25:55;;;;;;;12.83;8.17;;;9.50;99.60;;;;;;4994244;28;20502;-85
2022/03/31 13:28:28;;;;;;;8.47;7.17;;;9.50;99.60;;;;;;4993261;28;20494;-87
2022/03/31 13:34:34;;;;;;;6.77;6.07;;;9.70;97.90;;;;;;4995176;28;20469;-83
2022/03/31 13:37:14;;;;;;;7.13;6.43;;;9.50;97.00;;;;;;4999957;23;20515;-85
2022/03/31 13:39:53;;;;;;;7.33;6.57;;;9.50;96.80;;;;;;4966534;28;20489;-85
2022/03/31 13:42:45;;;;;;;7.67;6.80;;;9.50;96.30;;;;;;4982108;28;20550;-86
2022/03/31 13:45:29;;;;;;;7.87;6.50;;;9.50;96.80;;;;;;4974229;28;20467;-82
2022/03/31 13:47:59;;;;;;;7.17;6.43;;;9.80;96.90;;;;;;4967866;28;20463;-82
2022/03/31 13:51:08;;;;;;;;;;;;;;;;;;;;;
2022/03/31 13:53:48;;;;;;;9.40;8.10;;;9.80;96.10;;;;;;4970927;28;20462;-85
2022/03/31 13:56:34;;;;;;;10.70;8.57;;;9.70;98.00;;;;;;4971107;28;20484;-85
2022/03/31 14:02:50;;;;;;;11.00;7.80;;;10.00;97.90;;;;;;4972808;28;22259;-86
2022/03/31 14:05:53;;;;;;;10.67;8.20;;;10.10;98.00;;;;;;4976780;28;20479;-86
2022/03/31 14:08:26;;;;;;;8.97;7.43;;;9.90;99.20;;;;;;4965086;28;20557;-86
2022/03/31 14:11:00;;;;;;;7.17;6.47;;;9.90;99.60;;;;;;4964175;28;20531;-87
2022/03/31 14:13:54;;;;;;;7.53;6.83;;;10.00;99.40;;;;;;4965644;28;20534;-85